Joao Dourado, Brazil
Current Conditions -  °F | °C
As of 6:00 PM on Tuesday 21 Oct 2014 (Local Time) from SBPL Reporting Station
Clear Clear  
Wind Chill: 91°   Ceiling: Unl
Heat Index: 91°   Visibility: 6mi
Dew Point: 61°   Wind: 3mph
Humidity: 36%   Direction: 150°SSE
Pressure: 29.88"   Gusts: NA
Location:  11.35°S, 41.66°W
Report Text: SBPL 212100Z 15003KT CAVOK 33/16 Q1012
Loading
Personal Weather Stations






























Interactive Weather Map
Tropical Storm Tracking
New forecast layout! Learn more

10-Day Weather Forecast

Advertisements
Track Severe Weather on mobile